createdAt,value
2022-10-21T00:00:59.578Z,22.70
2022-10-21T00:03:39.559Z,25.10
2022-10-21T00:06:09.640Z,22.40
2022-10-21T00:08:38.777Z,26.10
2022-10-21T00:11:08.531Z,22.70
2022-10-21T00:13:39.874Z,25.10
2022-10-21T00:16:14.977Z,26.00
2022-10-21T00:18:45.614Z,24.10
2022-10-21T00:21:17.490Z,24.30
2022-10-21T00:23:45.775Z,26.90
2022-10-21T00:26:14.946Z,25.50
2022-10-21T00:28:43.345Z,24.30
2022-10-21T00:31:14.664Z,25.30
2022-10-21T00:33:43.141Z,20.70
2022-10-21T00:36:15.153Z,24.20
2022-10-21T00:38:46.574Z,21.60
2022-10-21T00:41:16.631Z,23.50
2022-10-21T00:43:58.798Z,20.10
2022-10-21T00:46:39.727Z,24.80
2022-10-21T00:49:16.615Z,21.00
2022-10-21T00:51:48.190Z,25.80
2022-10-21T00:54:18.062Z,22.00
2022-10-21T00:56:47.857Z,22.50
2022-10-21T00:59:16.675Z,20.20
2022-10-21T01:01:44.609Z,25.00
2022-10-21T01:04:12.554Z,28.30
2022-10-21T01:06:41.093Z,32.80
2022-10-21T01:09:09.392Z,21.50
2022-10-21T01:11:43.780Z,25.50
2022-10-21T01:17:45.748Z,20.60
2022-10-21T01:20:26.008Z,24.50
2022-10-21T01:23:27.327Z,26.70
2022-10-21T01:26:04.602Z,27.80
2022-10-21T01:28:51.606Z,25.50
2022-10-21T01:31:47.063Z,24.50
2022-10-21T01:34:24.263Z,25.40
2022-10-21T01:37:01.269Z,20.90
2022-10-21T01:39:54.332Z,21.80
2022-10-21T01:42:34.685Z,24.10
2022-10-21T01:45:19.155Z,24.80
2022-10-21T01:47:51.521Z,28.00
2022-10-21T01:50:26.442Z,27.00
2022-10-21T01:53:06.821Z,29.30
2022-10-21T01:55:37.368Z,29.20
2022-10-21T01:58:09.668Z,28.50
2022-10-21T02:00:39.419Z,26.50
2022-10-21T02:03:12.027Z,29.40
2022-10-21T02:05:40.294Z,28.30
2022-10-21T02:08:08.453Z,27.20
2022-10-21T02:10:41.988Z,25.40
2022-10-21T02:13:13.208Z,23.70
2022-10-21T02:15:43.327Z,25.80
2022-10-21T02:18:24.586Z,25.70
2022-10-21T02:20:59.755Z,21.20
2022-10-21T02:23:49.444Z,23.40
2022-10-21T02:26:17.901Z,24.60
2022-10-21T02:28:46.817Z,25.40
2022-10-21T02:31:39.748Z,25.40
2022-10-21T02:34:30.272Z,29.50
2022-10-21T02:37:31.729Z,31.70
2022-10-21T02:40:13.528Z,31.40
2022-10-21T02:42:50.958Z,30.30
2022-10-21T02:45:19.446Z,30.40
2022-10-21T02:47:48.411Z,26.70
2022-10-21T02:50:16.801Z,26.60
2022-10-21T02:52:44.741Z,25.60
2022-10-21T02:55:14.963Z,29.90
2022-10-21T02:57:42.869Z,24.30
2022-10-21T03:00:11.782Z,26.40
2022-10-21T03:02:39.740Z,24.00
2022-10-21T03:05:09.461Z,27.40
2022-10-21T03:07:37.631Z,29.00
2022-10-21T03:10:06.129Z,30.40
2022-10-21T03:12:34.127Z,26.00
2022-10-21T03:15:02.325Z,25.80
2022-10-21T03:17:30.356Z,28.60
2022-10-21T03:19:58.381Z,24.60
2022-10-21T03:22:26.496Z,26.30
2022-10-21T03:24:54.302Z,25.20
2022-10-21T03:27:22.868Z,27.00
2022-10-21T03:29:50.866Z,31.70
2022-10-21T03:32:18.852Z,28.00
2022-10-21T03:34:46.994Z,27.60
2022-10-21T03:37:14.979Z,26.40
2022-10-21T03:39:43.591Z,29.10
2022-10-21T03:42:11.351Z,29.70
2022-10-21T03:44:40.110Z,23.40
2022-10-21T03:47:08.629Z,27.30
2022-10-21T03:49:36.437Z,27.90
2022-10-21T03:52:04.445Z,29.80
2022-10-21T03:54:32.478Z,25.40
2022-10-21T03:57:00.867Z,26.10
2022-10-21T03:59:28.781Z,24.00
2022-10-21T04:01:57.946Z,26.70
2022-10-21T04:04:25.933Z,25.40
2022-10-21T04:06:55.126Z,26.00
2022-10-21T04:09:23.087Z,26.20
2022-10-21T04:11:51.414Z,27.70
2022-10-21T04:14:20.238Z,26.40
2022-10-21T04:16:53.567Z,28.30
2022-10-21T04:19:30.286Z,31.50
2022-10-21T04:21:59.638Z,30.20
2022-10-21T04:24:27.889Z,31.80
2022-10-21T04:26:56.071Z,28.70
2022-10-21T04:29:24.654Z,27.80
2022-10-21T04:31:52.745Z,28.50
2022-10-21T04:34:20.802Z,29.80
2022-10-21T04:36:49.344Z,31.60
2022-10-21T04:39:18.141Z,28.00
2022-10-21T04:41:48.362Z,34.40
2022-10-21T04:44:16.264Z,28.60
2022-10-21T04:46:45.258Z,30.30
2022-10-21T04:49:13.708Z,28.60
2022-10-21T04:51:42.221Z,29.20
2022-10-21T04:54:10.254Z,30.80
2022-10-21T04:56:39.196Z,26.40
2022-10-21T04:59:07.704Z,30.60
2022-10-21T05:01:35.978Z,29.40
2022-10-21T05:04:03.966Z,31.00
2022-10-21T05:06:32.130Z,30.10
2022-10-21T05:09:00.382Z,29.10
2022-10-21T05:11:28.899Z,30.20
2022-10-21T05:13:56.991Z,29.50
2022-10-21T05:16:25.316Z,32.70
2022-10-21T05:18:53.603Z,30.10
2022-10-21T05:21:21.689Z,31.50
2022-10-21T05:23:50.258Z,28.40
2022-10-21T05:26:18.828Z,31.00
2022-10-21T05:28:47.190Z,31.70
2022-10-21T05:31:15.302Z,30.50
2022-10-21T05:33:43.269Z,33.80
2022-10-21T05:36:11.454Z,36.70
2022-10-21T05:38:39.657Z,37.70
2022-10-21T05:41:08.229Z,38.60
2022-10-21T05:43:38.775Z,36.50
2022-10-21T05:46:08.785Z,29.40
2022-10-21T05:48:37.948Z,36.00
2022-10-21T05:51:06.747Z,36.40
2022-10-21T05:53:35.298Z,34.90
2022-10-21T05:56:06.791Z,33.80
2022-10-21T05:58:36.016Z,39.60
2022-10-21T06:01:04.421Z,38.80
2022-10-21T06:03:35.026Z,34.00
2022-10-21T06:06:05.756Z,34.40
2022-10-21T06:08:35.910Z,30.70
2022-10-21T06:11:13.784Z,31.30
2022-10-21T06:13:43.007Z,30.80
2022-10-21T06:16:13.140Z,29.70
2022-10-21T06:18:42.270Z,31.20
2022-10-21T06:21:11.397Z,30.10
2022-10-21T06:23:40.362Z,34.70
2022-10-21T06:26:13.767Z,34.80
2022-10-21T06:28:43.630Z,34.70
2022-10-21T06:31:18.958Z,30.40
2022-10-21T06:33:47.988Z,34.00
2022-10-21T06:36:17.168Z,31.20
2022-10-21T06:38:49.172Z,27.10
2022-10-21T06:41:20.329Z,33.90
2022-10-21T06:43:48.866Z,31.20
2022-10-21T06:46:17.829Z,32.80
2022-10-21T06:48:45.738Z,31.10
2022-10-21T06:51:20.489Z,31.60
2022-10-21T06:53:56.679Z,29.20
2022-10-21T06:56:26.695Z,31.60
2022-10-21T06:58:57.865Z,30.40
2022-10-21T07:01:48.122Z,31.60
2022-10-21T07:04:21.630Z,30.20
2022-10-21T07:06:49.676Z,32.30
2022-10-21T07:09:18.066Z,30.30
2022-10-21T07:11:46.928Z,28.70
2022-10-21T07:14:15.274Z,31.30
2022-10-21T07:16:43.766Z,31.00
2022-10-21T07:19:11.779Z,36.60
2022-10-21T07:21:39.999Z,39.70
2022-10-21T07:24:08.103Z,38.50
2022-10-21T07:26:36.069Z,42.00
2022-10-21T07:29:04.965Z,35.40
2022-10-21T07:31:36.610Z,35.80
2022-10-21T07:34:06.626Z,34.80
2022-10-21T07:36:40.640Z,29.30
2022-10-21T07:39:12.899Z,29.10
2022-10-21T07:41:44.869Z,29.40
2022-10-21T07:44:13.558Z,33.30
2022-10-21T07:46:42.911Z,29.40
2022-10-21T07:49:12.781Z,33.50
2022-10-21T07:51:41.628Z,35.70
2022-10-21T07:54:10.295Z,31.80
2022-10-21T07:56:45.397Z,34.10
2022-10-21T07:59:14.151Z,41.50
2022-10-21T08:04:24.846Z,47.00
2022-10-21T08:06:53.560Z,40.20
2022-10-21T08:09:22.151Z,37.10
2022-10-21T08:11:50.161Z,33.70
2022-10-21T08:14:18.298Z,32.70
2022-10-21T08:16:46.409Z,34.50
2022-10-21T08:19:20.402Z,29.90
2022-10-21T08:21:50.561Z,29.00
2022-10-21T08:24:18.905Z,29.40
2022-10-21T08:26:47.176Z,31.10
2022-10-21T08:29:15.567Z,30.30
2022-10-21T08:31:43.520Z,25.60
2022-10-21T08:34:11.678Z,26.60
2022-10-21T08:36:40.392Z,29.80
2022-10-21T08:39:09.376Z,28.00
2022-10-21T08:41:54.500Z,29.00
2022-10-21T08:44:31.733Z,27.10
2022-10-21T08:47:11.384Z,30.60
2022-10-21T08:50:05.502Z,30.40
2022-10-21T08:52:45.371Z,26.40
2022-10-21T08:55:37.922Z,26.00
2022-10-21T08:58:06.696Z,27.30
2022-10-21T09:00:44.922Z,25.70
2022-10-21T09:03:13.677Z,26.40
2022-10-21T09:05:51.272Z,29.60
2022-10-21T09:08:42.096Z,28.90
2022-10-21T09:11:21.863Z,25.10
2022-10-21T09:14:05.300Z,25.80
2022-10-21T09:16:58.309Z,25.40
2022-10-21T09:19:44.759Z,27.50
2022-10-21T09:22:45.038Z,23.20
2022-10-21T09:25:24.743Z,22.70
2022-10-21T09:27:56.972Z,26.70
2022-10-21T09:30:26.323Z,25.30
2022-10-21T09:33:00.272Z,24.40
2022-10-21T09:35:35.687Z,23.30
2022-10-21T09:38:27.047Z,27.40
2022-10-21T09:41:03.723Z,22.30
2022-10-21T09:43:33.257Z,21.10
2022-10-21T09:46:01.656Z,25.60
2022-10-21T09:49:16.276Z,20.60
2022-10-21T09:51:38.569Z,23.80
2022-10-21T09:54:17.240Z,19.20
2022-10-21T09:57:12.186Z,22.00
2022-10-21T09:59:51.972Z,20.40
2022-10-21T10:02:48.419Z,21.00
2022-10-21T10:05:44.500Z,18.30
2022-10-21T10:08:33.324Z,23.20
2022-10-21T10:11:05.558Z,18.70
2022-10-21T10:13:34.987Z,21.40
2022-10-21T10:16:27.067Z,18.80
2022-10-21T10:19:24.257Z,21.20
2022-10-21T10:22:28.917Z,23.40
2022-10-21T10:25:17.235Z,18.20
2022-10-21T10:28:00.684Z,18.00
2022-10-21T10:30:35.754Z,20.40
2022-10-21T10:33:09.007Z,23.00
2022-10-21T10:35:38.983Z,21.30
2022-10-21T10:38:07.356Z,21.20
2022-10-21T10:40:43.543Z,17.80
2022-10-21T10:43:20.899Z,19.00
2022-10-21T10:45:56.775Z,19.80
2022-10-21T10:48:43.507Z,20.60
2022-10-21T10:51:32.986Z,22.30
2022-10-21T10:54:08.894Z,21.00
2022-10-21T10:56:51.437Z,21.30
2022-10-21T10:59:32.834Z,18.60
2022-10-21T11:02:40.186Z,17.50
2022-10-21T11:05:31.789Z,23.60
2022-10-21T11:08:07.151Z,22.40
2022-10-21T11:11:12.557Z,18.40
2022-10-21T11:13:42.294Z,17.60
2022-10-21T11:16:45.109Z,19.00
2022-10-21T11:19:40.357Z,17.50
2022-10-21T11:22:17.758Z,21.70
2022-10-21T11:25:05.644Z,19.00
2022-10-21T11:27:55.407Z,18.50
2022-10-21T11:30:48.615Z,17.90
2022-10-21T11:33:19.697Z,17.80
2022-10-21T11:36:10.334Z,20.60
2022-10-21T11:39:19.305Z,19.50
2022-10-21T11:42:06.863Z,17.20
2022-10-21T11:44:53.821Z,18.40
2022-10-21T11:47:32.175Z,20.80
2022-10-21T11:50:21.413Z,19.60
2022-10-21T11:53:16.157Z,20.60
2022-10-21T11:56:27.721Z,17.90
2022-10-21T11:59:21.170Z,16.70
2022-10-21T12:02:01.826Z,18.10
2022-10-21T12:04:45.189Z,19.10
2022-10-21T12:07:31.869Z,19.70
2022-10-21T12:10:10.263Z,20.10
2022-10-21T12:12:46.844Z,22.80
2022-10-21T12:15:21.536Z,20.30
2022-10-21T12:17:50.713Z,20.00
2022-10-21T12:20:28.354Z,21.70
2022-10-21T12:23:04.994Z,21.30
2022-10-21T12:26:18.301Z,17.10
2022-10-21T12:28:58.686Z,20.40
2022-10-21T12:31:49.376Z,20.10
2022-10-21T12:34:18.647Z,17.40
2022-10-21T12:36:52.014Z,17.10
2022-10-21T12:39:35.680Z,21.90
2022-10-21T12:42:13.788Z,16.50
2022-10-21T12:44:50.280Z,18.00
2022-10-21T12:47:29.010Z,19.40
2022-10-21T12:50:24.885Z,21.80
2022-10-21T12:53:27.859Z,18.10
2022-10-21T12:56:02.630Z,19.50
2022-10-21T12:58:44.398Z,18.50
2022-10-21T13:01:47.152Z,19.30
2022-10-21T13:04:35.667Z,19.10
2022-10-21T13:07:15.890Z,19.60
2022-10-21T13:10:09.574Z,21.30
2022-10-21T13:12:38.737Z,20.20
2022-10-21T13:15:23.181Z,18.30
2022-10-21T13:17:56.530Z,17.40
2022-10-21T13:20:25.716Z,17.70
2022-10-21T13:23:15.873Z,17.60
2022-10-21T13:25:45.544Z,17.70
2022-10-21T13:28:14.600Z,21.90
2022-10-21T13:30:50.058Z,19.20
2022-10-21T13:33:23.671Z,18.20
2022-10-21T13:36:03.504Z,20.30
2022-10-21T13:38:37.371Z,20.00
2022-10-21T13:41:20.278Z,19.50
2022-10-21T13:43:55.136Z,16.30
2022-10-21T13:46:40.711Z,19.20
2022-10-21T13:49:34.036Z,17.40
2022-10-21T13:52:06.349Z,20.40
2022-10-21T13:54:36.165Z,18.60
2022-10-21T13:57:08.779Z,20.30
2022-10-21T13:59:37.307Z,19.90
2022-10-21T14:02:05.385Z,19.10
2022-10-21T14:04:40.563Z,19.30
2022-10-21T14:07:18.105Z,22.30
2022-10-21T14:09:50.082Z,22.80
2022-10-21T14:12:33.860Z,23.40
2022-10-21T14:15:07.582Z,16.80
2022-10-21T14:17:42.494Z,21.50
2022-10-21T14:20:18.564Z,21.20
2022-10-21T14:22:54.141Z,22.60
2022-10-21T14:25:25.686Z,28.40
2022-10-21T14:27:59.294Z,24.70
2022-10-21T14:30:32.436Z,19.40
2022-10-21T14:33:03.750Z,17.90
2022-10-21T14:35:32.911Z,22.20
2022-10-21T14:38:22.765Z,19.30
2022-10-21T14:41:05.880Z,22.20
2022-10-21T14:43:44.129Z,25.00
2022-10-21T14:46:22.149Z,24.30
2022-10-21T14:49:04.943Z,26.30
2022-10-21T14:51:39.193Z,30.60
2022-10-21T14:54:21.222Z,24.70
2022-10-21T14:56:51.393Z,26.80
2022-10-21T14:59:26.811Z,23.10
2022-10-21T15:01:59.398Z,27.10
2022-10-21T15:04:42.752Z,23.00
2022-10-21T15:09:58.519Z,28.80
2022-10-21T15:12:27.393Z,26.60
2022-10-21T15:14:58.997Z,24.00
2022-10-21T15:18:14.606Z,21.10
2022-10-21T15:20:58.441Z,24.10
2022-10-21T15:23:39.227Z,24.30
2022-10-21T15:26:26.583Z,25.90
2022-10-21T15:28:57.750Z,27.90
2022-10-21T15:31:29.615Z,25.40
2022-10-21T15:33:59.026Z,22.70
2022-10-21T15:36:28.397Z,25.40
2022-10-21T15:38:57.809Z,32.20
2022-10-21T15:41:29.632Z,32.70
2022-10-21T15:44:05.958Z,38.40
2022-10-21T15:46:42.412Z,34.70
2022-10-21T15:49:25.470Z,49.80
2022-10-21T15:51:54.764Z,51.40
2022-10-21T15:54:24.025Z,51.60
2022-10-21T15:56:55.375Z,52.30
2022-10-21T15:59:31.804Z,50.70
2022-10-21T16:02:01.118Z,54.90
2022-10-21T16:04:30.967Z,65.10
2022-10-21T16:07:06.205Z,69.30
2022-10-21T16:09:35.597Z,56.60
2022-10-21T16:12:06.337Z,75.70
2022-10-21T16:14:36.762Z,66.20
2022-10-21T16:17:05.864Z,79.70
2022-10-21T16:19:34.752Z,81.70
2022-10-21T16:22:04.670Z,88.50
2022-10-21T16:24:34.708Z,98.10
2022-10-21T16:27:04.286Z,94.40
2022-10-21T16:29:33.785Z,87.50
2022-10-21T16:32:02.737Z,97.20
2022-10-21T16:34:31.420Z,167.00
2022-10-21T16:37:01.676Z,142.30
2022-10-21T16:39:30.804Z,132.00
2022-10-21T16:42:02.334Z,141.70
2022-10-21T16:44:31.879Z,138.30
2022-10-21T16:47:00.633Z,140.70
2022-10-21T16:49:29.773Z,171.50
2022-10-21T16:52:01.043Z,145.30
2022-10-21T16:54:29.687Z,125.80
2022-10-21T16:57:01.220Z,141.00
2022-10-21T16:59:45.547Z,167.90
2022-10-21T17:02:40.014Z,186.50
2022-10-21T17:05:13.153Z,166.90
2022-10-21T17:07:42.422Z,164.70
2022-10-21T17:10:11.588Z,165.70
2022-10-21T17:12:44.050Z,154.00
2022-10-21T17:15:20.342Z,155.20
2022-10-21T17:17:49.457Z,164.20
2022-10-21T17:20:18.742Z,173.40
2022-10-21T17:22:47.454Z,170.00
2022-10-21T17:25:23.737Z,112.80
2022-10-21T17:27:52.738Z,94.70
2022-10-21T17:30:27.004Z,108.40
2022-10-21T17:33:00.616Z,71.40
2022-10-21T17:35:30.907Z,71.40
2022-10-21T17:37:59.775Z,96.50
2022-10-21T17:40:29.042Z,110.80
2022-10-21T17:43:03.812Z,67.70
2022-10-21T17:45:34.038Z,73.30
2022-10-21T17:48:03.327Z,83.10
2022-10-21T17:50:33.544Z,68.80
2022-10-21T17:53:02.644Z,66.10
2022-10-21T17:55:32.042Z,70.00
2022-10-21T17:58:01.874Z,67.20
2022-10-21T18:00:31.027Z,57.50
2022-10-21T18:03:03.511Z,52.10
2022-10-21T18:05:34.155Z,57.00
2022-10-21T18:08:03.988Z,64.00
2022-10-21T18:10:48.516Z,62.90
2022-10-21T18:13:19.006Z,52.60
2022-10-21T18:15:51.814Z,44.60
2022-10-21T18:18:24.301Z,37.90
2022-10-21T18:20:56.859Z,38.60
2022-10-21T18:23:26.127Z,37.40
2022-10-21T18:25:54.986Z,33.20
2022-10-21T18:28:24.283Z,29.40
2022-10-21T18:30:55.879Z,31.30
2022-10-21T18:33:25.730Z,34.20
2022-10-21T18:35:54.995Z,33.70
2022-10-21T18:38:28.677Z,33.20
2022-10-21T18:41:15.258Z,31.20
2022-10-21T18:43:53.319Z,33.50
2022-10-21T18:46:24.418Z,30.40
2022-10-21T18:48:54.340Z,28.60
2022-10-21T18:51:24.411Z,28.70
2022-10-21T18:53:57.697Z,33.50
2022-10-21T18:56:29.358Z,35.90
2022-10-21T18:59:03.046Z,31.70
2022-10-21T19:01:32.906Z,27.80
2022-10-21T19:04:03.059Z,28.60
2022-10-21T19:06:45.950Z,32.50
2022-10-21T19:09:17.475Z,29.10
2022-10-21T19:11:50.488Z,31.10
2022-10-21T19:14:20.400Z,34.50
2022-10-21T19:16:50.690Z,31.70
2022-10-21T19:19:26.117Z,36.50
2022-10-21T19:21:56.346Z,31.40
2022-10-21T19:24:34.545Z,31.70
2022-10-21T19:27:04.603Z,32.80
2022-10-21T19:29:34.039Z,30.00
2022-10-21T19:32:04.711Z,29.70
2022-10-21T19:34:39.329Z,34.80
2022-10-21T19:37:11.634Z,31.00
2022-10-21T19:39:43.037Z,28.90
2022-10-21T19:42:13.878Z,30.40
2022-10-21T19:44:43.872Z,31.70
2022-10-21T19:47:12.786Z,31.40
2022-10-21T19:49:43.125Z,32.80
2022-10-21T19:52:13.204Z,32.50
2022-10-21T19:54:43.483Z,36.20
2022-10-21T19:57:14.328Z,38.50
2022-10-21T19:59:43.737Z,32.90
2022-10-21T20:02:14.233Z,35.60
2022-10-21T20:04:44.050Z,33.80
2022-10-21T20:07:13.283Z,33.30
2022-10-21T20:09:44.216Z,30.90
2022-10-21T20:12:13.286Z,31.10
2022-10-21T20:14:44.029Z,31.00
2022-10-21T20:17:16.127Z,30.00
2022-10-21T20:19:52.147Z,30.30
2022-10-21T20:22:22.470Z,31.50
2022-10-21T20:24:52.396Z,28.00
2022-10-21T20:27:21.504Z,33.70
2022-10-21T20:29:52.210Z,29.10
2022-10-21T20:32:23.077Z,31.90
2022-10-21T20:34:53.207Z,31.20
2022-10-21T20:37:22.767Z,27.30
2022-10-21T20:39:51.982Z,28.20
2022-10-21T20:42:21.073Z,27.80
2022-10-21T20:44:50.487Z,29.60
2022-10-21T20:47:19.746Z,30.60
2022-10-21T20:49:49.317Z,26.40
2022-10-21T20:52:19.243Z,25.50
2022-10-21T20:54:49.039Z,26.30
2022-10-21T20:57:21.333Z,24.70
2022-10-21T20:59:49.638Z,26.50
2022-10-21T21:02:18.290Z,27.40
2022-10-21T21:04:47.142Z,26.30
2022-10-21T21:07:17.476Z,23.90
2022-10-21T21:10:01.673Z,24.70
2022-10-21T21:12:32.565Z,23.80
2022-10-21T21:15:01.564Z,26.50
2022-10-21T21:17:30.564Z,22.20
2022-10-21T21:20:00.420Z,23.70
2022-10-21T21:22:29.708Z,24.80
2022-10-21T21:24:59.141Z,23.10
2022-10-21T21:27:29.831Z,20.80
2022-10-21T21:29:58.447Z,24.10
2022-10-21T21:32:28.134Z,19.60
2022-10-21T21:35:00.137Z,19.40
2022-10-21T21:37:31.574Z,18.80
2022-10-21T21:40:01.577Z,21.80
2022-10-21T21:42:31.373Z,22.30
2022-10-21T21:45:00.018Z,22.20
2022-10-21T21:47:29.229Z,19.30
2022-10-21T21:50:00.800Z,21.90
2022-10-21T21:52:29.926Z,18.40
2022-10-21T21:54:58.525Z,21.70
2022-10-21T21:57:29.218Z,21.10
2022-10-21T21:59:57.858Z,26.20
2022-10-21T22:02:26.407Z,23.40
2022-10-21T22:04:54.818Z,21.40
2022-10-21T22:07:22.937Z,22.70
2022-10-21T22:09:51.213Z,26.10
2022-10-21T22:12:23.065Z,22.10
2022-10-21T22:14:52.921Z,23.40
2022-10-21T22:17:21.463Z,27.80
2022-10-21T22:19:53.710Z,27.50
2022-10-21T22:22:22.698Z,25.50
2022-10-21T22:24:51.103Z,28.30
2022-10-21T22:27:19.439Z,29.80
2022-10-21T22:29:48.029Z,28.60
2022-10-21T22:32:18.406Z,28.20
2022-10-21T22:34:46.847Z,30.10
2022-10-21T22:37:16.146Z,30.50
2022-10-21T22:39:44.531Z,26.80
2022-10-21T22:42:12.910Z,30.60
2022-10-21T22:44:41.020Z,28.00
2022-10-21T22:47:09.613Z,30.40
2022-10-21T22:49:38.136Z,31.10
2022-10-21T22:52:06.593Z,29.10
2022-10-21T22:54:49.035Z,32.00
2022-10-21T22:57:18.293Z,28.60
2022-10-21T22:59:52.857Z,26.50
2022-10-21T23:02:22.330Z,28.90
2022-10-21T23:04:50.695Z,28.60
2022-10-21T23:07:18.938Z,30.30
2022-10-21T23:09:47.615Z,28.10
2022-10-21T23:12:15.830Z,28.20
2022-10-21T23:14:44.109Z,29.80
2022-10-21T23:17:13.024Z,26.20
2022-10-21T23:19:41.250Z,26.50
2022-10-21T23:22:10.882Z,29.60
2022-10-21T23:24:38.887Z,30.20
2022-10-21T23:27:07.515Z,32.00
2022-10-21T23:29:36.090Z,29.10
2022-10-21T23:32:04.857Z,29.60
2022-10-21T23:34:32.964Z,30.70
2022-10-21T23:37:01.018Z,31.50
2022-10-21T23:39:29.531Z,30.30
2022-10-21T23:41:57.780Z,30.20
2022-10-21T23:44:29.400Z,31.40
2022-10-21T23:46:57.618Z,26.40
2022-10-21T23:49:25.703Z,29.30
2022-10-21T23:51:54.115Z,33.60
2022-10-21T23:54:22.288Z,29.70
2022-10-21T23:56:50.916Z,28.90
2022-10-21T23:59:19.195Z,29.00
